Tropical Cyclones
[Index]
Main Index Home Page Stock Weather Photos Extreme Storms Discussion Storm News and Storm Chasing Reports Tropical Cyclones / Hurricanes / Typhoons Weather Data and Links Wild Fires / Bushfires Weather Observation Techniques Weather Picture Catalogue Tornado Pictures and Reports Stock Video Footage and DVDs for sale
Season 1969-1970 Tropical Cyclone GLYNIS Track Map
Season 1969-1970 Summaries: [BoM-AU] [JTWC-AU] [JTWC-SIO] [JTWC-SPAC] [JTWC-SH]
<<- Previous TC | BoM 1969-1970 Season | Next TC ->>

click for intensity scale information  Lat/long Grid: Show Hide

 Date Labels: Show Hide

Bureau of Meteorology Tropical Cyclone Data

Name: GLYNIS
Number: 453 / 196970_03

26 Jan 1970 23:00 UTC to 06 Feb 1970 01:00 UTC

    date/time    lat    long    hPa   cat  kts
1970-01-26 23   12.1   129.8   1000                     
1970-01-27 16   12.7   127.7    998                     
1970-01-27 23   13.1   126.5    998                     
1970-01-28 09   13.3   125.2    994    1                
1970-01-28 16   13.2   124.0    990    1                
1970-01-29 01   13.1   121.9    990    1                
1970-01-29 16   13.8   119.7    990    1                
1970-01-30 01   14.3   118.5    988    1                
1970-01-30 16   15.1   117.7    986    1                
1970-01-31 01   16.3   116.7    986    1                
1970-01-31 16   17.3   116.2    986    1                
1970-02-01 01   18.9   115.7    984    2                
1970-02-01 05   20.5   114.5    974    2                
1970-02-01 16   22.1   112.9    970    3                
1970-02-02 01   23.6   111.7    980    2                
1970-02-02 15   25.7   111.2    985    2                
1970-02-02 16   26.0   111.1    985    2                
1970-02-03 01   27.0   111.1    990    1                
1970-02-04 01   28.4   111.7    998                     
1970-02-05 01   30.0   112.7    998                     
1970-02-06 01   31.0   113.4    998                     
Winds are 10-min average.

Tropical cyclone tracks developed by Michael Bath using data from the Bureau of Meteorology and Google Maps.


[Australian Severe Weather index] [Copyright Notice] [Email Contacts] [Search This Site] [Privacy Policy]
Document: tropical_cyclone_glynis.htm Updated: 30 May 2013